Time;durP1;ratioP1;P1;durP2;ratioP2;P2;SDS_P1;SDS_P2;PMS_P1;PMS_P2;Temp;Humidity;BMP_temperature;BMP_pressure;BME280_temperature;BME280_humidity;BME280_pressure;Samples;Min_cycle;Max_cycle;Signal;HPM_P1;HPM_P2
2021/08/23 00:01:02;;;;;;;16.73;14.02;;;;;;;;;;5036993;28;20041;-69
2021/08/23 00:03:29;;;;;;;14.55;13.15;;;;;;;;;;5041737;28;20370;-68
2021/08/23 00:05:55;;;;;;;14.15;12.55;;;;;;;;;;5032677;28;20053;-69
2021/08/23 00:08:22;;;;;;;13.30;11.90;;;;;;;;;;5040014;28;20491;-68
2021/08/23 00:10:48;;;;;;;13.98;12.60;;;;;;;;;;5032678;28;20037;-68
2021/08/23 00:13:15;;;;;;;15.30;13.80;;;;;;;;;;5042436;28;20503;-67
2021/08/23 00:15:41;;;;;;;14.00;12.25;;;;;;;;;;5041637;28;20490;-68
2021/08/23 00:18:07;;;;;;;14.63;12.93;;;;;;;;;;5035664;28;20045;-68
2021/08/23 00:20:43;;;;;;;15.35;12.93;;;;;;;;;;5035941;28;20064;-68
2021/08/23 00:23:11;;;;;;;14.48;12.98;;;;;;;;;;5033084;28;20404;-68
2021/08/23 00:25:37;;;;;;;14.57;13.18;;;;;;;;;;5039354;28;20049;-68
2021/08/23 00:28:04;;;;;;;20.02;13.02;;;;;;;;;;5028331;28;20052;-68
2021/08/23 00:30:30;;;;;;;14.70;13.15;;;;;;;;;;5041509;28;20072;-68
2021/08/23 00:32:57;;;;;;;15.55;12.65;;;;;;;;;;5035372;28;20044;-69
2021/08/23 00:35:23;;;;;;;13.65;12.25;;;;;;;;;;5040619;28;20045;-69
2021/08/23 00:37:50;;;;;;;14.68;13.15;;;;;;;;;;5030947;28;20044;-68
2021/08/23 00:40:17;;;;;;;18.27;11.73;;;;;;;;;;5037753;28;20449;-68
2021/08/23 00:42:43;;;;;;;15.02;12.77;;;;;;;;;;5031132;28;20107;-68
2021/08/23 00:45:09;;;;;;;14.63;12.05;;;;;;;;;;5040996;28;20405;-68
2021/08/23 00:47:35;;;;;;;14.05;11.35;;;;;;;;;;5036326;28;20033;-68
2021/08/23 00:50:04;;;;;;;16.02;12.38;;;;;;;;;;5042329;28;20116;-68
2021/08/23 00:52:31;;;;;;;13.23;11.65;;;;;;;;;;5037047;28;20065;-68
2021/08/23 00:54:57;;;;;;;13.88;12.40;;;;;;;;;;5042353;28;20481;-68
2021/08/23 00:57:23;;;;;;;16.58;11.82;;;;;;;;;;5039221;28;20037;-68
2021/08/23 00:59:52;;;;;;;13.20;11.80;;;;;;;;;;5042277;28;20602;-68
2021/08/23 01:02:25;;;;;;;14.80;11.38;;;;;;;;;;5045221;28;20037;-68
2021/08/23 01:05:04;;;;;;;14.95;11.32;;;;;;;;;;5036483;28;20103;-69
2021/08/23 01:07:35;;;;;;;14.35;12.25;;;;;;;;;;5039730;28;20540;-69
2021/08/23 01:10:08;;;;;;;15.50;12.15;;;;;;;;;;5034498;28;20474;-69
2021/08/23 01:12:34;;;;;;;15.25;11.88;;;;;;;;;;5040204;28;20140;-69
2021/08/23 01:15:01;;;;;;;15.00;12.02;;;;;;;;;;5038772;28;20047;-69
2021/08/23 01:17:27;;;;;;;15.95;10.93;;;;;;;;;;5036507;28;20061;-69
2021/08/23 01:19:54;;;;;;;14.68;12.15;;;;;;;;;;5036857;28;20101;-68
2021/08/23 01:22:21;;;;;;;14.93;12.07;;;;;;;;;;5044785;28;20429;-68
2021/08/23 01:24:50;;;;;;;18.42;12.35;;;;;;;;;;5035923;28;20044;-68
2021/08/23 01:27:16;;;;;;;18.35;12.52;;;;;;;;;;5046863;28;20041;-68
2021/08/23 01:29:49;;;;;;;15.80;12.68;;;;;;;;;;5035655;28;20124;-68
2021/08/23 01:32:18;;;;;;;17.80;12.45;;;;;;;;;;5041924;28;20033;-68
2021/08/23 01:34:45;;;;;;;18.42;12.82;;;;;;;;;;5036309;28;20052;-68
2021/08/23 01:37:12;;;;;;;15.25;12.73;;;;;;;;;;5043949;28;20072;-68
2021/08/23 01:39:39;;;;;;;15.93;12.73;;;;;;;;;;5036415;28;20055;-68
2021/08/23 01:42:05;;;;;;;20.10;12.70;;;;;;;;;;5038652;28;20068;-68
2021/08/23 01:44:32;;;;;;;13.85;11.80;;;;;;;;;;5039088;28;20127;-68
2021/08/23 01:46:58;;;;;;;15.45;11.60;;;;;;;;;;5041457;28;20045;-68
2021/08/23 01:49:24;;;;;;;15.90;12.25;;;;;;;;;;5037921;28;20107;-68
2021/08/23 01:51:50;;;;;;;14.35;11.55;;;;;;;;;;5041399;28;20074;-68
2021/08/23 01:54:18;;;;;;;16.52;12.40;;;;;;;;;;5041203;28;20044;-68
2021/08/23 01:56:44;;;;;;;17.77;11.65;;;;;;;;;;5035352;28;20444;-68
2021/08/23 01:59:11;;;;;;;16.02;11.57;;;;;;;;;;5038711;28;20052;-68
2021/08/23 02:01:37;;;;;;;15.85;11.85;;;;;;;;;;5037246;28;20052;-68
2021/08/23 02:04:03;;;;;;;18.45;12.13;;;;;;;;;;5043870;28;20394;-68
2021/08/23 02:06:29;;;;;;;16.42;11.93;;;;;;;;;;5031829;28;20036;-68
2021/08/23 02:08:56;;;;;;;15.82;11.43;;;;;;;;;;5041805;28;20116;-69
2021/08/23 02:11:25;;;;;;;15.80;11.52;;;;;;;;;;5033591;28;20503;-68
2021/08/23 02:13:54;;;;;;;14.80;11.15;;;;;;;;;;5043822;28;20116;-69
2021/08/23 02:16:21;;;;;;;13.40;10.30;;;;;;;;;;5036504;28;20100;-69
2021/08/23 02:18:47;;;;;;;19.77;11.50;;;;;;;;;;5041536;28;20141;-69
2021/08/23 02:21:13;;;;;;;13.68;10.45;;;;;;;;;;5034294;28;20038;-69
2021/08/23 02:23:40;;;;;;;14.88;10.00;;;;;;;;;;5043862;28;20044;-69
2021/08/23 02:26:07;;;;;;;14.52;10.20;;;;;;;;;;5035563;28;20088;-68
2021/08/23 02:28:33;;;;;;;11.60;9.27;;;;;;;;;;5045565;28;20055;-68
2021/08/23 02:31:00;;;;;;;9.68;8.15;;;;;;;;;;5038180;28;20056;-68
2021/08/23 02:33:26;;;;;;;12.38;8.90;;;;;;;;;;5038709;28;20409;-68
2021/08/23 02:35:52;;;;;;;13.18;8.30;;;;;;;;;;5041031;28;20043;-68
2021/08/23 02:38:19;;;;;;;13.02;8.30;;;;;;;;;;5036789;28;20752;-68
2021/08/23 02:40:45;;;;;;;11.07;7.65;;;;;;;;;;5023106;28;20049;-68
2021/08/23 02:43:11;;;;;;;12.82;8.63;;;;;;;;;;5037082;28;20033;-68
2021/08/23 02:45:37;;;;;;;10.75;6.97;;;;;;;;;;5042208;28;20041;-68
2021/08/23 02:48:03;;;;;;;10.65;7.00;;;;;;;;;;5037460;28;20497;-68
2021/08/23 02:50:30;;;;;;;9.45;6.60;;;;;;;;;;5046113;28;20041;-68
2021/08/23 02:52:56;;;;;;;11.82;7.07;;;;;;;;;;5035546;28;20102;-68
2021/08/23 02:55:22;;;;;;;9.63;6.20;;;;;;;;;;5042335;28;20045;-68
2021/08/23 02:57:48;;;;;;;9.07;5.60;;;;;;;;;;5030250;28;20124;-68
2021/08/23 03:00:14;;;;;;;10.18;6.38;;;;;;;;;;5043581;28;20037;-68
2021/08/23 03:02:41;;;;;;;12.70;5.85;;;;;;;;;;5035209;28;20061;-68
2021/08/23 03:05:07;;;;;;;9.38;6.20;;;;;;;;;;5043164;28;20048;-68
2021/08/23 03:07:33;;;;;;;8.88;5.78;;;;;;;;;;5032676;28;20037;-68
2021/08/23 03:09:59;;;;;;;11.07;6.22;;;;;;;;;;5038294;28;20440;-68
2021/08/23 03:12:25;;;;;;;9.60;5.50;;;;;;;;;;5041089;28;20545;-68
2021/08/23 03:14:52;;;;;;;8.48;5.53;;;;;;;;;;5035621;28;20382;-68
2021/08/23 03:17:20;;;;;;;8.48;5.38;;;;;;;;;;5038575;28;20063;-68
2021/08/23 03:19:46;;;;;;;11.95;5.60;;;;;;;;;;5035394;28;20034;-68
2021/08/23 03:22:13;;;;;;;8.18;5.65;;;;;;;;;;5039812;28;20171;-68
2021/08/23 03:24:39;;;;;;;9.98;5.18;;;;;;;;;;5031940;28;20037;-68
2021/08/23 03:27:05;;;;;;;12.93;5.68;;;;;;;;;;5039077;28;20033;-68
2021/08/23 03:29:31;;;;;;;7.32;5.53;;;;;;;;;;5034502;28;20048;-68
2021/08/23 03:31:58;;;;;;;7.13;5.68;;;;;;;;;;5040487;28;20405;-68
2021/08/23 03:34:24;;;;;;;8.63;5.47;;;;;;;;;;5030840;28;20044;-68
2021/08/23 03:36:51;;;;;;;9.15;6.88;;;;;;;;;;5040923;28;20444;-68
2021/08/23 03:39:17;;;;;;;9.45;7.03;;;;;;;;;;5033184;28;20120;-68
2021/08/23 03:41:43;;;;;;;9.70;7.15;;;;;;;;;;5024752;28;20108;-68
2021/08/23 03:44:10;;;;;;;11.65;7.18;;;;;;;;;;5030980;28;20485;-68
2021/08/23 03:46:36;;;;;;;10.55;7.80;;;;;;;;;;5042330;28;20091;-68
2021/08/23 03:49:03;;;;;;;9.93;6.97;;;;;;;;;;5038056;28;20037;-68
2021/08/23 03:51:29;;;;;;;13.02;7.22;;;;;;;;;;5037512;28;20033;-68
2021/08/23 03:53:56;;;;;;;13.57;7.05;;;;;;;;;;5038340;28;20033;-68
2021/08/23 03:56:22;;;;;;;13.13;7.55;;;;;;;;;;5036965;28;20038;-68
2021/08/23 03:58:48;;;;;;;10.75;6.65;;;;;;;;;;5038089;28;20358;-68
2021/08/23 04:01:14;;;;;;;12.82;7.38;;;;;;;;;;5034257;28;20060;-68
2021/08/23 04:03:42;;;;;;;13.75;7.32;;;;;;;;;;5036337;28;20130;-68
2021/08/23 04:06:12;;;;;;;10.88;6.78;;;;;;;;;;5035254;28;20056;-68
2021/08/23 04:08:38;;;;;;;10.50;7.10;;;;;;;;;;5037781;28;20112;-68
2021/08/23 04:11:05;;;;;;;11.15;6.65;;;;;;;;;;5030936;28;20044;-68
2021/08/23 04:13:31;;;;;;;11.15;6.43;;;;;;;;;;5041096;28;20067;-68
2021/08/23 04:16:00;;;;;;;9.52;6.70;;;;;;;;;;5034995;28;20413;-68
2021/08/23 04:18:26;;;;;;;12.18;6.35;;;;;;;;;;5039347;28;20057;-68
2021/08/23 04:20:52;;;;;;;11.32;6.97;;;;;;;;;;5034231;28;20033;-68
2021/08/23 04:23:19;;;;;;;8.85;5.95;;;;;;;;;;5039761;28;20076;-68
2021/08/23 04:25:45;;;;;;;11.63;6.25;;;;;;;;;;5038773;28;20041;-68
2021/08/23 04:28:11;;;;;;;9.40;5.32;;;;;;;;;;5042114;28;20508;-68
2021/08/23 04:30:37;;;;;;;9.55;5.57;;;;;;;;;;5037410;28;20041;-68
2021/08/23 04:33:04;;;;;;;9.13;5.30;;;;;;;;;;5041847;28;20061;-68
2021/08/23 04:35:30;;;;;;;7.88;5.75;;;;;;;;;;5041781;28;20551;-68
2021/08/23 04:37:56;;;;;;;8.88;4.50;;;;;;;;;;5038755;28;20061;-68
2021/08/23 04:40:22;;;;;;;7.40;5.03;;;;;;;;;;5045561;28;20513;-68
2021/08/23 04:42:48;;;;;;;6.40;4.90;;;;;;;;;;5039343;28;20110;-68
2021/08/23 04:45:14;;;;;;;9.25;5.88;;;;;;;;;;5039911;28;20447;-68
2021/08/23 04:47:41;;;;;;;10.13;5.78;;;;;;;;;;5036421;28;20041;-68
2021/08/23 04:50:07;;;;;;;8.38;5.68;;;;;;;;;;5045354;28;20088;-68
2021/08/23 04:52:39;;;;;;;8.45;5.38;;;;;;;;;;5038331;28;20045;-68
2021/08/23 04:55:06;;;;;;;8.63;5.30;;;;;;;;;;5042767;28;20041;-68
2021/08/23 04:57:32;;;;;;;10.18;5.20;;;;;;;;;;5035609;28;20137;-68
2021/08/23 04:59:58;;;;;;;11.65;5.20;;;;;;;;;;5042756;28;20441;-68
2021/08/23 05:02:24;;;;;;;10.15;5.28;;;;;;;;;;5032200;28;20431;-68
2021/08/23 05:04:51;;;;;;;7.85;5.30;;;;;;;;;;5043697;28;20041;-69
2021/08/23 05:07:17;;;;;;;8.60;5.07;;;;;;;;;;5030185;28;20080;-70
2021/08/23 05:09:43;;;;;;;9.02;5.35;;;;;;;;;;5041753;28;20034;-67
2021/08/23 05:12:09;;;;;;;7.93;4.90;;;;;;;;;;5042046;28;20404;-67
2021/08/23 05:14:36;;;;;;;7.72;5.75;;;;;;;;;;5041651;28;20045;-67
2021/08/23 05:17:02;;;;;;;7.75;6.00;;;;;;;;;;5043046;28;20045;-68
2021/08/23 05:19:28;;;;;;;8.50;5.75;;;;;;;;;;5036642;28;20090;-69
2021/08/23 05:21:54;;;;;;;7.47;5.45;;;;;;;;;;5036704;28;20041;-69
2021/08/23 05:24:20;;;;;;;7.68;5.40;;;;;;;;;;5034334;28;20473;-69
2021/08/23 05:26:46;;;;;;;9.38;5.65;;;;;;;;;;5040885;28;20074;-69
2021/08/23 05:29:13;;;;;;;8.40;5.20;;;;;;;;;;5034138;28;20416;-69
2021/08/23 05:31:39;;;;;;;8.52;5.18;;;;;;;;;;5037387;28;20037;-69
2021/08/23 05:34:05;;;;;;;9.95;5.53;;;;;;;;;;5033964;28;20036;-69
2021/08/23 05:36:32;;;;;;;13.48;5.93;;;;;;;;;;5045935;28;20088;-68
2021/08/23 05:38:58;;;;;;;10.02;5.43;;;;;;;;;;5035974;28;20037;-69
2021/08/23 05:41:25;;;;;;;10.38;5.43;;;;;;;;;;5040474;28;20405;-68
2021/08/23 05:43:53;;;;;;;10.05;5.38;;;;;;;;;;5033661;28;20094;-69
2021/08/23 05:46:23;;;;;;;8.73;4.72;;;;;;;;;;5045920;28;20104;-69
2021/08/23 05:48:49;;;;;;;12.02;5.15;;;;;;;;;;5033377;28;20037;-68
2021/08/23 05:51:16;;;;;;;12.85;5.07;;;;;;;;;;5042942;28;20033;-68
2021/08/23 05:53:42;;;;;;;12.60;5.22;;;;;;;;;;5038331;28;20538;-68
2021/08/23 05:56:09;;;;;;;9.00;4.50;;;;;;;;;;5032881;28;20044;-68
2021/08/23 05:58:35;;;;;;;8.52;4.35;;;;;;;;;;5040449;28;20073;-68
2021/08/23 06:01:02;;;;;;;8.15;4.53;;;;;;;;;;5036819;28;20045;-68
2021/08/23 06:03:28;;;;;;;9.80;3.90;;;;;;;;;;5043149;28;20511;-68
2021/08/23 06:05:55;;;;;;;9.00;4.13;;;;;;;;;;5038719;28;20503;-69
2021/08/23 06:08:21;;;;;;;7.88;3.58;;;;;;;;;;5043391;28;20033;-68
2021/08/23 06:10:47;;;;;;;6.85;4.03;;;;;;;;;;5037317;28;20816;-68
2021/08/23 06:13:13;;;;;;;10.85;3.78;;;;;;;;;;5039930;28;20037;-68
2021/08/23 06:15:39;;;;;;;6.97;3.33;;;;;;;;;;5028515;28;20176;-68
2021/08/23 06:18:05;;;;;;;8.85;3.58;;;;;;;;;;5040273;28;20453;-68
2021/08/23 06:20:31;;;;;;;13.68;4.00;;;;;;;;;;5035541;28;20433;-68
2021/08/23 06:22:58;;;;;;;8.75;3.88;;;;;;;;;;5041702;28;20057;-68
2021/08/23 06:25:24;;;;;;;7.75;3.05;;;;;;;;;;5034934;28;20037;-68
2021/08/23 06:27:50;;;;;;;8.32;3.00;;;;;;;;;;5039145;28;20089;-68
2021/08/23 06:30:16;;;;;;;8.43;3.42;;;;;;;;;;5034828;28;20037;-68
2021/08/23 06:32:43;;;;;;;8.80;3.00;;;;;;;;;;5046786;28;20413;-68
2021/08/23 06:35:10;;;;;;;5.90;2.92;;;;;;;;;;5034263;28;20492;-68
2021/08/23 06:37:36;;;;;;;10.00;3.40;;;;;;;;;;5033885;28;20048;-68
2021/08/23 06:40:07;;;;;;;11.68;2.95;;;;;;;;;;5042361;28;20034;-68
2021/08/23 06:42:34;;;;;;;9.68;2.88;;;;;;;;;;5032249;28;20063;-68
2021/08/23 06:45:01;;;;;;;9.57;2.85;;;;;;;;;;5035087;28;20138;-68
2021/08/23 06:47:27;;;;;;;7.43;2.80;;;;;;;;;;5034993;28;20033;-72
2021/08/23 06:49:53;;;;;;;7.88;3.10;;;;;;;;;;5022429;28;20056;-68
2021/08/23 06:52:20;;;;;;;5.22;2.60;;;;;;;;;;5032283;28;20039;-69
2021/08/23 06:54:46;;;;;;;7.28;2.70;;;;;;;;;;5037034;28;20056;-69
2021/08/23 06:57:13;;;;;;;6.40;3.22;;;;;;;;;;5033208;28;20048;-69
2021/08/23 06:59:39;;;;;;;7.07;3.08;;;;;;;;;;5035723;28;20037;-69
2021/08/23 07:02:05;;;;;;;7.72;2.90;;;;;;;;;;5037226;28;20037;-69
2021/08/23 07:04:31;;;;;;;6.70;3.28;;;;;;;;;;5041321;28;20053;-69
2021/08/23 07:06:57;;;;;;;8.40;3.25;;;;;;;;;;5035265;28;20131;-68
2021/08/23 07:09:23;;;;;;;9.32;3.67;;;;;;;;;;5039105;28;20037;-68
2021/08/23 07:11:49;;;;;;;7.07;2.95;;;;;;;;;;5035968;28;20143;-69
2021/08/23 07:14:16;;;;;;;6.43;2.95;;;;;;;;;;5037601;28;20068;-69
2021/08/23 07:16:42;;;;;;;6.03;2.67;;;;;;;;;;5036408;28;20072;-69
2021/08/23 07:19:09;;;;;;;10.70;4.13;;;;;;;;;;5034303;28;20025;-68
2021/08/23 07:21:35;;;;;;;8.68;3.38;;;;;;;;;;5038780;28;20045;-68
2021/08/23 07:24:01;;;;;;;5.93;3.25;;;;;;;;;;5034039;28;20032;-68
2021/08/23 07:26:47;;;;;;;7.57;3.17;;;;;;;;;;5024154;28;20069;-68
2021/08/23 07:29:14;;;;;;;8.20;3.45;;;;;;;;;;5031460;28;20033;-69
2021/08/23 07:31:40;;;;;;;12.00;3.50;;;;;;;;;;5040156;28;20079;-68
2021/08/23 07:34:07;;;;;;;8.90;3.50;;;;;;;;;;5033910;28;20049;-69
2021/08/23 07:36:36;;;;;;;17.45;4.20;;;;;;;;;;5038205;28;20131;-69
2021/08/23 07:39:03;;;;;;;7.97;3.22;;;;;;;;;;5034290;28;20090;-69
2021/08/23 07:41:29;;;;;;;5.13;2.45;;;;;;;;;;5038212;28;20375;-69
2021/08/23 07:43:55;;;;;;;6.85;2.63;;;;;;;;;;5031629;28;20289;-69
2021/08/23 07:46:21;;;;;;;6.85;2.60;;;;;;;;;;5038536;28;20037;-69
2021/08/23 07:48:49;;;;;;;5.90;2.78;;;;;;;;;;5028680;28;20045;-69
2021/08/23 07:51:15;;;;;;;4.72;2.17;;;;;;;;;;5040214;28;20034;-69
2021/08/23 07:53:42;;;;;;;7.78;2.38;;;;;;;;;;5033196;28;20140;-70
2021/08/23 07:56:09;;;;;;;7.57;2.35;;;;;;;;;;5034299;28;20403;-70
2021/08/23 07:58:35;;;;;;;5.82;1.90;;;;;;;;;;5036425;28;20496;-69
2021/08/23 08:01:01;;;;;;;5.30;1.70;;;;;;;;;;5033108;28;20041;-69
2021/08/23 08:03:28;;;;;;;4.20;1.27;;;;;;;;;;5039379;28;20038;-69
2021/08/23 08:05:55;;;;;;;3.05;1.25;;;;;;;;;;5028815;28;20478;-69
2021/08/23 08:08:21;;;;;;;5.50;1.60;;;;;;;;;;5040835;28;20068;-69
2021/08/23 08:10:47;;;;;;;5.22;1.58;;;;;;;;;;5031626;28;20053;-70
2021/08/23 08:13:14;;;;;;;6.80;1.80;;;;;;;;;;5033345;28;20046;-66
2021/08/23 08:15:42;;;;;;;5.28;1.35;;;;;;;;;;5033645;28;20037;-67
2021/08/23 08:18:08;;;;;;;5.82;1.35;;;;;;;;;;5039329;28;20040;-67
2021/08/23 08:20:34;;;;;;;6.60;1.40;;;;;;;;;;5034154;28;20041;-68
2021/08/23 08:23:01;;;;;;;1.98;0.88;;;;;;;;;;5041606;28;20381;-68
2021/08/23 08:25:27;;;;;;;2.63;1.00;;;;;;;;;;5035536;28;20413;-68
2021/08/23 08:27:53;;;;;;;2.10;0.85;;;;;;;;;;5038848;28;20052;-68
2021/08/23 08:30:20;;;;;;;2.60;0.80;;;;;;;;;;5028290;28;20039;-68
2021/08/23 08:32:46;;;;;;;4.32;0.85;;;;;;;;;;5039282;28;20408;-68
2021/08/23 08:35:13;;;;;;;1.85;0.80;;;;;;;;;;5035983;28;20049;-70
2021/08/23 08:37:42;;;;;;;1.95;0.90;;;;;;;;;;5034292;28;20287;-71
2021/08/23 08:40:09;;;;;;;4.05;0.98;;;;;;;;;;5040584;28;20044;-70
2021/08/23 08:42:43;;;;;;;;;;;;;;;;;;5038165;28;20041;-70
2021/08/23 08:45:10;;;;;;;3.17;0.85;;;;;;;;;;5037273;28;19917;-70
2021/08/23 08:47:39;;;;;;;2.13;0.88;;;;;;;;;;5032604;28;20591;-69
2021/08/23 08:50:05;;;;;;;2.92;0.80;;;;;;;;;;5037614;28;20120;-72
2021/08/23 08:52:31;;;;;;;2.33;0.80;;;;;;;;;;5030801;28;20041;-72
2021/08/23 08:54:58;;;;;;;3.80;0.90;;;;;;;;;;5040523;28;20039;-69
2021/08/23 08:57:24;;;;;;;2.42;0.55;;;;;;;;;;5031258;28;20055;-70
2021/08/23 08:59:51;;;;;;;3.33;0.80;;;;;;;;;;5041027;28;20140;-70
2021/08/23 09:02:17;;;;;;;2.35;0.90;;;;;;;;;;5032851;28;20044;-70
2021/08/23 09:04:44;;;;;;;1.95;0.75;;;;;;;;;;5036571;28;20394;-70
2021/08/23 09:07:13;;;;;;;5.10;0.77;;;;;;;;;;5032693;28;20037;-68
2021/08/23 09:09:39;;;;;;;3.83;0.95;;;;;;;;;;5044918;28;20044;-68
2021/08/23 09:12:05;;;;;;;2.83;0.90;;;;;;;;;;5036071;28;20037;-68
2021/08/23 09:14:32;;;;;;;3.22;0.98;;;;;;;;;;5040000;28;20040;-68
2021/08/23 09:17:06;;;;;;;4.05;0.93;;;;;;;;;;5037685;28;20056;-69
2021/08/23 09:19:43;;;;;;;2.50;0.90;;;;;;;;;;5041750;28;20081;-69
2021/08/23 09:22:16;;;;;;;2.53;0.65;;;;;;;;;;5035786;28;20433;-70
2021/08/23 09:24:48;;;;;;;2.90;0.60;;;;;;;;;;5039894;28;20040;-70
2021/08/23 09:27:32;;;;;;;1.98;0.80;;;;;;;;;;5040201;28;20057;-71
2021/08/23 09:30:07;;;;;;;2.92;0.70;;;;;;;;;;5041864;28;20048;-71
2021/08/23 09:32:49;;;;;;;2.75;0.90;;;;;;;;;;5034792;28;20034;-69
2021/08/23 09:35:25;;;;;;;3.97;0.68;;;;;;;;;;5041328;28;20116;-69
2021/08/23 09:37:52;;;;;;;3.45;0.98;;;;;;;;;;5036422;28;20068;-71
2021/08/23 09:40:27;;;;;;;2.00;0.50;;;;;;;;;;5047769;28;20103;-67
2021/08/23 09:42:59;;;;;;;5.05;0.98;;;;;;;;;;5035502;28;20041;-67
2021/08/23 09:45:26;;;;;;;3.20;1.05;;;;;;;;;;5045767;28;20122;-67
2021/08/23 09:47:59;;;;;;;1.88;0.88;;;;;;;;;;5041662;28;20083;-67
2021/08/23 09:50:25;;;;;;;2.05;1.00;;;;;;;;;;5039172;28;20198;-69
2021/08/23 09:52:52;;;;;;;2.35;1.15;;;;;;;;;;5040224;28;20100;-70
2021/08/23 09:55:18;;;;;;;4.38;1.50;;;;;;;;;;5035450;28;20049;-70
2021/08/23 09:57:45;;;;;;;2.88;1.35;;;;;;;;;;5039265;28;20060;-70
2021/08/23 10:00:13;;;;;;;2.78;1.20;;;;;;;;;;5040055;28;20041;-70
2021/08/23 10:02:49;;;;;;;2.25;1.23;;;;;;;;;;5043434;28;20056;-71
2021/08/23 10:05:18;;;;;;;2.53;1.23;;;;;;;;;;5036181;28;20044;-70
2021/08/23 10:07:45;;;;;;;5.18;1.60;;;;;;;;;;5043879;28;20025;-70
2021/08/23 10:10:12;;;;;;;3.72;1.00;;;;;;;;;;5035630;28;20040;-70
2021/08/23 10:12:38;;;;;;;2.63;1.00;;;;;;;;;;5040906;28;20517;-70
2021/08/23 10:15:05;;;;;;;3.33;1.20;;;;;;;;;;5031032;28;20077;-69
2021/08/23 10:17:37;;;;;;;3.10;0.70;;;;;;;;;;5044027;28;20060;-69
2021/08/23 10:20:05;;;;;;;1.83;1.10;;;;;;;;;;5031647;28;20083;-69
2021/08/23 10:22:32;;;;;;;2.22;0.80;;;;;;;;;;5040193;28;20814;-69
2021/08/23 10:24:58;;;;;;;3.00;0.90;;;;;;;;;;5032034;28;20042;-70
2021/08/23 10:27:27;;;;;;;3.53;0.90;;;;;;;;;;5042136;28;20052;-70
2021/08/23 10:29:53;;;;;;;4.57;1.10;;;;;;;;;;5035850;28;20097;-70
2021/08/23 10:32:19;;;;;;;2.75;0.95;;;;;;;;;;5038223;28;20400;-70
2021/08/23 10:34:45;;;;;;;1.83;0.75;;;;;;;;;;5038866;28;20035;-70
2021/08/23 10:37:16;;;;;;;2.05;0.77;;;;;;;;;;5040161;28;20037;-69
2021/08/23 10:39:42;;;;;;;3.38;0.82;;;;;;;;;;5040124;28;20053;-70
2021/08/23 10:42:16;;;;;;;1.05;0.60;;;;;;;;;;5038342;28;20083;-70
2021/08/23 10:44:42;;;;;;;1.48;0.80;;;;;;;;;;5039734;28;20049;-67
2021/08/23 10:47:10;;;;;;;2.47;0.73;;;;;;;;;;5035281;28;20090;-67
2021/08/23 10:49:42;;;;;;;2.03;0.73;;;;;;;;;;5040250;28;20478;-70
2021/08/23 10:52:10;;;;;;;2.25;0.57;;;;;;;;;;5030853;28;20124;-69
2021/08/23 10:54:38;;;;;;;1.85;0.60;;;;;;;;;;5039423;28;20041;-67
2021/08/23 10:57:06;;;;;;;1.63;0.45;;;;;;;;;;5035603;28;20054;-69
2021/08/23 10:59:43;;;;;;;1.10;0.70;;;;;;;;;;5041355;28;20409;-67
2021/08/23 11:02:13;;;;;;;3.42;0.70;;;;;;;;;;5031000;28;20046;-69
2021/08/23 11:04:42;;;;;;;2.75;0.90;;;;;;;;;;5044934;28;20140;-69
2021/08/23 11:07:11;;;;;;;4.15;0.90;;;;;;;;;;5034449;28;20051;-69
2021/08/23 11:09:40;;;;;;;3.08;0.80;;;;;;;;;;5038224;28;20493;-69
2021/08/23 11:12:17;;;;;;;2.72;0.82;;;;;;;;;;5035061;28;20490;-69
2021/08/23 11:14:53;;;;;;;1.48;0.70;;;;;;;;;;5035768;28;20047;-69
2021/08/23 11:17:30;;;;;;;2.55;1.10;;;;;;;;;;5032718;28;20515;-70
2021/08/23 11:19:57;;;;;;;2.85;1.10;;;;;;;;;;5031632;28;20044;-69
2021/08/23 11:22:24;;;;;;;2.20;0.98;;;;;;;;;;5033462;28;20423;-70
2021/08/23 11:24:51;;;;;;;4.47;0.80;;;;;;;;;;5038735;28;20060;-71
2021/08/23 11:27:17;;;;;;;5.10;0.63;;;;;;;;;;5027393;28;20056;-71
2021/08/23 11:29:50;;;;;;;1.92;0.80;;;;;;;;;;5040964;28;20424;-72
2021/08/23 11:32:18;;;;;;;2.72;0.90;;;;;;;;;;5033228;28;20136;-71
2021/08/23 11:34:55;;;;;;;4.43;0.90;;;;;;;;;;5035030;28;20051;-71
2021/08/23 11:37:24;;;;;;;1.60;0.65;;;;;;;;;;5028667;28;20042;-71
2021/08/23 11:40:01;;;;;;;4.45;1.05;;;;;;;;;;5038848;28;20434;-71
2021/08/23 11:42:27;;;;;;;2.72;0.88;;;;;;;;;;5032774;28;20048;-72
2021/08/23 11:44:54;;;;;;;1.90;0.90;;;;;;;;;;5036638;28;20046;-72
2021/08/23 11:47:29;;;;;;;2.42;0.85;;;;;;;;;;5040277;28;20045;-72
2021/08/23 11:49:55;;;;;;;2.92;0.70;;;;;;;;;;5037971;28;20128;-72
2021/08/23 11:52:22;;;;;;;1.77;0.77;;;;;;;;;;5036865;28;20051;-72
2021/08/23 11:54:49;;;;;;;3.40;0.90;;;;;;;;;;5031832;28;20041;-71
2021/08/23 11:57:20;;;;;;;1.98;0.80;;;;;;;;;;5039982;28;20528;-71
2021/08/23 12:00:15;;;;;;;4.85;0.85;;;;;;;;;;5034276;28;20075;-71
2021/08/23 12:02:42;;;;;;;2.10;0.90;;;;;;;;;;5022537;28;20053;-68
2021/08/23 12:05:17;;;;;;;1.70;0.65;;;;;;;;;;5029368;28;20036;-70
2021/08/23 12:07:50;;;;;;;0.90;0.43;;;;;;;;;;5038022;28;20057;-69
2021/08/23 12:10:23;;;;;;;2.03;0.82;;;;;;;;;;5030787;28;20136;-70
2021/08/23 12:12:49;;;;;;;1.23;0.75;;;;;;;;;;5037823;28;20465;-69
2021/08/23 12:15:25;;;;;;;2.63;0.63;;;;;;;;;;5033376;28;20116;-69
2021/08/23 12:17:51;;;;;;;1.70;0.60;;;;;;;;;;5036910;28;20057;-68
2021/08/23 12:20:19;;;;;;;2.08;0.75;;;;;;;;;;5031318;28;20069;-68
2021/08/23 12:22:45;;;;;;;1.63;0.75;;;;;;;;;;5035190;28;20037;-69
2021/08/23 12:25:11;;;;;;;2.55;0.60;;;;;;;;;;5031618;28;20075;-69
2021/08/23 12:27:37;;;;;;;1.10;0.55;;;;;;;;;;5037845;28;20081;-69
2021/08/23 12:30:04;;;;;;;1.67;0.63;;;;;;;;;;5034521;28;20049;-71
2021/08/23 12:32:34;;;;;;;1.70;0.77;;;;;;;;;;5039005;28;20110;-71
2021/08/23 12:35:00;;;;;;;3.08;0.75;;;;;;;;;;5031439;28;20061;-69
2021/08/23 12:37:29;;;;;;;3.85;0.50;;;;;;;;;;5036368;28;20051;-68
2021/08/23 12:39:55;;;;;;;1.50;0.50;;;;;;;;;;5029623;28;20463;-70
2021/08/23 12:42:22;;;;;;;1.95;0.70;;;;;;;;;;5037408;28;20044;-69
2021/08/23 12:44:50;;;;;;;1.80;0.70;;;;;;;;;;5034860;28;20513;-71
2021/08/23 12:47:16;;;;;;;2.15;0.57;;;;;;;;;;5045140;28;20045;-70
2021/08/23 12:49:42;;;;;;;1.52;0.70;;;;;;;;;;5025408;28;20042;-71
2021/08/23 12:52:08;;;;;;;1.38;0.70;;;;;;;;;;5015889;28;20041;-68
2021/08/23 12:54:34;;;;;;;2.88;0.80;;;;;;;;;;5038823;28;20473;-71
2021/08/23 12:57:00;;;;;;;2.33;0.77;;;;;;;;;;5037647;28;20121;-70
2021/08/23 12:59:27;;;;;;;2.10;0.75;;;;;;;;;;5025911;28;20029;-70
2021/08/23 13:01:53;;;;;;;3.00;0.65;;;;;;;;;;5017081;28;20065;-71
2021/08/23 13:04:19;;;;;;;1.88;0.70;;;;;;;;;;5040049;28;20080;-71
2021/08/23 13:06:45;;;;;;;1.92;0.82;;;;;;;;;;5018597;28;20049;-71
2021/08/23 13:09:11;;;;;;;2.28;0.70;;;;;;;;;;5023990;28;20060;-71
2021/08/23 13:11:38;;;;;;;2.85;0.90;;;;;;;;;;5035163;28;20107;-71
2021/08/23 13:14:04;;;;;;;4.60;0.88;;;;;;;;;;5024392;28;20045;-71
2021/08/23 13:16:30;;;;;;;1.80;0.70;;;;;;;;;;5016627;28;20095;-71
2021/08/23 13:18:59;;;;;;;1.83;0.80;;;;;;;;;;5018447;28;20049;-71
2021/08/23 13:21:27;;;;;;;3.17;0.70;;;;;;;;;;5012700;28;20435;-71
2021/08/23 13:23:53;;;;;;;2.03;0.70;;;;;;;;;;5019349;28;20037;-71
2021/08/23 13:26:22;;;;;;;4.45;1.00;;;;;;;;;;5032525;28;20120;-71
2021/08/23 13:28:49;;;;;;;2.40;0.70;;;;;;;;;;5036723;28;20054;-71
2021/08/23 13:31:16;;;;;;;2.58;0.50;;;;;;;;;;5021995;28;20061;-69
2021/08/23 13:33:42;;;;;;;2.05;0.65;;;;;;;;;;5013766;28;20041;-70
2021/08/23 13:36:08;;;;;;;2.28;0.88;;;;;;;;;;5039949;28;20046;-70
2021/08/23 13:38:35;;;;;;;2.22;0.65;;;;;;;;;;5010596;28;20038;-70
2021/08/23 13:41:01;;;;;;;2.22;0.50;;;;;;;;;;5022809;28;20046;-70
2021/08/23 13:43:27;;;;;;;2.67;0.80;;;;;;;;;;5015954;28;20045;-70
2021/08/23 13:45:53;;;;;;;2.30;0.60;;;;;;;;;;5021162;28;20046;-70
2021/08/23 13:48:19;;;;;;;2.08;0.80;;;;;;;;;;5015911;28;20045;-69
2021/08/23 13:50:46;;;;;;;1.63;0.65;;;;;;;;;;5025637;28;20176;-69
2021/08/23 13:53:13;;;;;;;1.70;0.80;;;;;;;;;;5021487;28;20045;-69
2021/08/23 13:55:39;;;;;;;4.43;0.75;;;;;;;;;;5020632;28;20362;-69
2021/08/23 13:58:05;;;;;;;1.67;0.60;;;;;;;;;;5014976;28;21408;-69
2021/08/23 14:00:31;;;;;;;3.70;0.77;;;;;;;;;;5024161;28;20454;-70
2021/08/23 14:02:57;;;;;;;1.52;0.60;;;;;;;;;;5020079;28;20080;-69
2021/08/23 14:05:23;;;;;;;3.50;0.77;;;;;;;;;;5019307;28;20075;-69
2021/08/23 14:07:54;;;;;;;1.98;0.52;;;;;;;;;;5006110;28;20060;-70
2021/08/23 14:10:21;;;;;;;1.90;0.60;;;;;;;;;;5014518;28;20080;-68
2021/08/23 14:12:47;;;;;;;1.77;0.52;;;;;;;;;;5025217;28;20493;-69
2021/08/23 14:15:14;;;;;;;2.13;0.75;;;;;;;;;;5013619;28;20148;-69
2021/08/23 14:17:41;;;;;;;1.73;0.73;;;;;;;;;;5029047;28;20049;-69
2021/08/23 14:20:07;;;;;;;2.13;0.52;;;;;;;;;;5031123;28;20048;-69
2021/08/23 14:22:33;;;;;;;1.40;0.80;;;;;;;;;;5041015;28;20104;-69
2021/08/23 14:25:00;;;;;;;1.98;0.70;;;;;;;;;;5034874;28;20037;-69
2021/08/23 14:27:26;;;;;;;1.02;0.40;;;;;;;;;;5038140;28;20132;-69
2021/08/23 14:29:52;;;;;;;1.63;0.60;;;;;;;;;;5036803;28;20052;-69
2021/08/23 14:32:18;;;;;;;3.45;0.73;;;;;;;;;;5041622;28;20049;-69
2021/08/23 14:34:44;;;;;;;1.88;0.70;;;;;;;;;;5029999;28;20084;-69
2021/08/23 14:37:10;;;;;;;4.47;0.73;;;;;;;;;;5038926;28;20469;-69
2021/08/23 14:39:37;;;;;;;1.45;0.57;;;;;;;;;;5038585;28;20516;-69